createdAt,value
2018-09-23T00:01:08.391Z,4.83
2018-09-23T00:03:35.727Z,2.77
2018-09-23T00:06:03.065Z,3.50
2018-09-23T00:08:30.416Z,3.50
2018-09-23T00:10:57.759Z,3.87
2018-09-23T00:13:25.107Z,4.40
2018-09-23T00:15:52.457Z,3.97
2018-09-23T00:18:19.808Z,4.00
2018-09-23T00:20:47.152Z,6.60
2018-09-23T00:23:14.478Z,4.37
2018-09-23T00:25:41.785Z,6.10
2018-09-23T00:28:09.107Z,4.83
2018-09-23T00:30:36.453Z,3.93
2018-09-23T00:33:03.818Z,3.77
2018-09-23T00:35:31.111Z,4.00
2018-09-23T00:37:58.448Z,3.53
2018-09-23T00:40:25.759Z,3.60
2018-09-23T00:42:53.095Z,3.90
2018-09-23T00:45:20.438Z,3.47
2018-09-23T00:47:47.775Z,5.27
2018-09-23T00:50:15.093Z,3.90
2018-09-23T00:52:42.427Z,3.33
2018-09-23T00:55:09.751Z,6.30
2018-09-23T00:57:37.109Z,4.40
2018-09-23T01:00:05.097Z,4.70
2018-09-23T01:02:32.436Z,4.87
2018-09-23T01:04:59.787Z,4.00
2018-09-23T01:07:27.128Z,4.40
2018-09-23T01:09:54.462Z,4.37
2018-09-23T01:12:21.811Z,4.73
2018-09-23T01:14:49.163Z,3.03
2018-09-23T01:17:16.483Z,3.03
2018-09-23T01:19:43.806Z,5.67
2018-09-23T01:22:11.126Z,4.23
2018-09-23T01:24:38.472Z,3.40
2018-09-23T01:27:05.800Z,5.47
2018-09-23T01:29:33.099Z,4.37
2018-09-23T01:32:00.436Z,5.43
2018-09-23T01:34:27.765Z,4.63
2018-09-23T01:36:55.099Z,7.20
2018-09-23T01:39:22.438Z,5.40
2018-09-23T01:41:49.764Z,6.60
2018-09-23T01:44:17.106Z,6.20
2018-09-23T01:46:44.434Z,6.67
2018-09-23T01:49:11.772Z,4.80
2018-09-23T01:51:39.116Z,5.30
2018-09-23T01:54:06.420Z,5.43
2018-09-23T01:56:33.756Z,5.60
2018-09-23T01:59:01.091Z,5.63
2018-09-23T02:01:28.419Z,9.13
2018-09-23T02:03:55.763Z,7.57
2018-09-23T02:06:23.077Z,5.83
2018-09-23T02:08:50.401Z,6.73
2018-09-23T02:11:17.715Z,6.90
2018-09-23T02:13:45.048Z,10.00
2018-09-23T02:16:12.435Z,6.97
2018-09-23T02:18:39.739Z,9.53
2018-09-23T02:21:07.099Z,6.73
2018-09-23T02:23:34.434Z,6.90
2018-09-23T02:26:01.787Z,6.37
2018-09-23T02:28:29.134Z,8.07
2018-09-23T02:30:56.447Z,7.80
2018-09-23T02:33:23.766Z,7.30
2018-09-23T02:35:51.119Z,7.93
2018-09-23T02:38:18.436Z,8.70
2018-09-23T02:40:45.780Z,8.07
2018-09-23T02:43:13.087Z,8.70
2018-09-23T02:45:40.398Z,8.70
2018-09-23T02:48:07.719Z,7.63
2018-09-23T02:50:35.043Z,7.77
2018-09-23T02:53:02.371Z,9.20
2018-09-23T02:55:29.679Z,7.53
2018-09-23T02:57:57.074Z,8.13
2018-09-23T03:00:24.396Z,9.30
2018-09-23T03:02:51.730Z,7.53
2018-09-23T03:05:19.042Z,7.73
2018-09-23T03:07:46.373Z,7.33
2018-09-23T03:10:13.736Z,7.93
2018-09-23T03:12:41.088Z,7.47
2018-09-23T03:15:08.390Z,8.50
2018-09-23T03:17:35.694Z,7.90
2018-09-23T03:20:03.055Z,7.93
2018-09-23T03:22:30.391Z,8.50
2018-09-23T03:24:57.711Z,7.97
2018-09-23T03:27:25.051Z,9.27
2018-09-23T03:29:52.383Z,9.00
2018-09-23T03:32:19.704Z,7.47
2018-09-23T03:34:47.029Z,7.40
2018-09-23T03:37:14.335Z,7.03
2018-09-23T03:39:41.736Z,8.10
2018-09-23T03:42:09.024Z,6.57
2018-09-23T03:44:36.351Z,6.70
2018-09-23T03:47:03.678Z,6.70
2018-09-23T03:49:30.988Z,5.53
2018-09-23T03:51:58.340Z,5.90
2018-09-23T03:54:25.680Z,6.07
2018-09-23T03:56:53.014Z,5.93
2018-09-23T03:59:20.365Z,5.70
2018-09-23T04:01:47.705Z,5.50
2018-09-23T04:04:15.027Z,5.53
2018-09-23T04:06:42.347Z,4.63
2018-09-23T04:09:09.668Z,4.57
2018-09-23T04:11:37.007Z,4.70
2018-09-23T04:14:04.339Z,3.80
2018-09-23T04:16:31.680Z,5.23
2018-09-23T04:18:58.975Z,5.03
2018-09-23T04:21:26.282Z,4.80
2018-09-23T04:23:53.607Z,5.10
2018-09-23T04:26:20.921Z,4.77
2018-09-23T04:28:48.258Z,6.87
2018-09-23T04:31:15.592Z,5.60
2018-09-23T04:33:42.937Z,5.47
2018-09-23T04:36:10.261Z,4.30
2018-09-23T04:38:37.575Z,4.97
2018-09-23T04:41:04.950Z,4.90
2018-09-23T04:43:32.256Z,5.10
2018-09-23T04:45:59.593Z,3.93
2018-09-23T04:48:26.912Z,5.40
2018-09-23T04:50:54.284Z,5.13
2018-09-23T04:53:21.612Z,5.77
2018-09-23T04:55:48.946Z,4.70
2018-09-23T04:58:16.248Z,5.10
2018-09-23T05:00:43.589Z,4.90
2018-09-23T05:03:10.957Z,5.47
2018-09-23T05:05:38.252Z,4.10
2018-09-23T05:08:05.705Z,4.57
2018-09-23T05:10:33.036Z,4.50
2018-09-23T05:13:00.347Z,6.67
2018-09-23T05:15:27.691Z,3.93
2018-09-23T05:17:55.028Z,3.50
2018-09-23T05:20:22.339Z,4.00
2018-09-23T05:22:49.692Z,3.63
2018-09-23T05:25:17.005Z,3.77
2018-09-23T05:27:44.351Z,4.33
2018-09-23T05:30:11.681Z,3.97
2018-09-23T05:32:38.987Z,3.83
2018-09-23T05:35:06.296Z,3.60
2018-09-23T05:37:33.619Z,3.67
2018-09-23T05:40:00.957Z,3.43
2018-09-23T05:42:28.260Z,3.90
2018-09-23T05:44:55.580Z,4.07
2018-09-23T05:47:22.912Z,4.03
2018-09-23T05:49:50.243Z,3.90
2018-09-23T05:52:17.560Z,4.30
2018-09-23T05:54:44.904Z,4.00
2018-09-23T05:57:12.304Z,4.47
2018-09-23T05:59:39.666Z,4.13
2018-09-23T06:02:07.015Z,4.40
2018-09-23T06:04:34.343Z,4.53
2018-09-23T06:07:01.723Z,5.10
2018-09-23T06:09:29.039Z,4.90
2018-09-23T06:11:56.369Z,6.13
2018-09-23T06:14:23.692Z,6.47
2018-09-23T06:16:51.020Z,5.37
2018-09-23T06:19:18.368Z,5.50
2018-09-23T06:21:45.712Z,5.40
2018-09-23T06:24:13.059Z,5.30
2018-09-23T06:26:40.385Z,7.63
2018-09-23T06:29:07.730Z,6.50
2018-09-23T06:31:35.100Z,7.07
2018-09-23T06:34:02.482Z,6.80
2018-09-23T06:36:29.744Z,7.67
2018-09-23T06:38:57.096Z,7.47
2018-09-23T06:41:24.417Z,9.60
2018-09-23T06:43:51.736Z,9.33
2018-09-23T06:46:19.062Z,9.23
2018-09-23T06:48:46.409Z,9.80
2018-09-23T06:51:13.835Z,9.50
2018-09-23T06:53:41.082Z,8.87
2018-09-23T06:56:08.443Z,12.47
2018-09-23T06:58:35.758Z,10.67
2018-09-23T07:01:03.097Z,10.37
2018-09-23T07:03:30.418Z,11.60
2018-09-23T07:05:57.769Z,14.13
2018-09-23T07:08:25.087Z,11.13
2018-09-23T07:10:52.416Z,13.77
2018-09-23T07:13:19.809Z,13.27
2018-09-23T07:15:47.131Z,12.90
2018-09-23T07:18:14.477Z,14.40
2018-09-23T07:20:41.809Z,13.53
2018-09-23T07:23:09.147Z,12.50
2018-09-23T07:25:36.460Z,14.37
2018-09-23T07:28:03.780Z,14.07
2018-09-23T07:30:32.064Z,15.47
2018-09-23T07:32:59.393Z,15.70
2018-09-23T07:35:26.731Z,15.93
2018-09-23T07:37:54.113Z,15.37
2018-09-23T07:40:21.457Z,14.77
2018-09-23T07:42:48.833Z,14.37
2018-09-23T07:45:16.134Z,16.73
2018-09-23T07:47:43.534Z,16.97
2018-09-23T07:50:10.845Z,16.53
2018-09-23T07:52:38.179Z,18.10
2018-09-23T07:55:05.530Z,18.03
2018-09-23T07:57:32.853Z,16.80
2018-09-23T08:00:00.164Z,19.07
2018-09-23T08:02:27.523Z,16.30
2018-09-23T08:04:54.871Z,21.33
2018-09-23T08:07:22.180Z,17.47
2018-09-23T08:09:49.535Z,18.23
2018-09-23T08:12:16.902Z,17.60
2018-09-23T08:14:44.676Z,17.90
2018-09-23T08:17:11.612Z,17.43
2018-09-23T08:19:39.048Z,17.13
2018-09-23T08:22:06.426Z,17.17
2018-09-23T08:24:33.748Z,16.27
2018-09-23T08:27:01.084Z,17.70
2018-09-23T08:29:28.404Z,16.93
2018-09-23T08:31:55.779Z,18.57
2018-09-23T08:34:23.220Z,17.33
2018-09-23T08:36:50.560Z,16.13
2018-09-23T08:39:17.906Z,16.10
2018-09-23T08:41:45.232Z,18.70
2018-09-23T08:44:12.564Z,20.23
2018-09-23T08:46:39.904Z,19.67
2018-09-23T08:49:07.227Z,21.43
2018-09-23T08:51:34.535Z,19.33
2018-09-23T08:54:01.909Z,20.30
2018-09-23T08:56:29.222Z,21.40
2018-09-23T08:58:56.569Z,19.03
2018-09-23T09:01:23.894Z,18.57
2018-09-23T09:03:51.262Z,17.27
2018-09-23T09:06:18.555Z,17.10
2018-09-23T09:08:45.895Z,16.80
2018-09-23T09:11:13.317Z,15.77
2018-09-23T09:13:40.638Z,14.40
2018-09-23T09:16:08.008Z,14.87
2018-09-23T09:18:35.402Z,12.10
2018-09-23T09:21:02.680Z,15.30
2018-09-23T09:23:30.010Z,12.33
2018-09-23T09:25:57.339Z,12.07
2018-09-23T09:28:24.676Z,11.27
2018-09-23T09:30:51.984Z,9.50
2018-09-23T09:33:19.324Z,10.77
2018-09-23T09:35:46.645Z,10.07
2018-09-23T09:38:13.977Z,8.43
2018-09-23T09:40:41.284Z,9.23
2018-09-23T09:43:08.607Z,10.60
2018-09-23T09:45:35.916Z,8.97
2018-09-23T09:48:03.399Z,8.73
2018-09-23T09:50:30.796Z,7.90
2018-09-23T09:52:58.128Z,6.83
2018-09-23T09:55:25.535Z,5.37
2018-09-23T09:57:52.768Z,5.33
2018-09-23T10:00:20.100Z,5.17
2018-09-23T10:02:47.411Z,4.80
2018-09-23T10:05:14.748Z,3.30
2018-09-23T10:07:42.051Z,2.60
2018-09-23T10:10:09.437Z,2.50
2018-09-23T10:12:36.741Z,2.50
2018-09-23T10:15:04.100Z,2.90
2018-09-23T10:17:31.424Z,2.50
2018-09-23T10:19:58.760Z,2.70
2018-09-23T10:22:26.131Z,2.93
2018-09-23T10:24:53.399Z,2.37
2018-09-23T10:27:20.712Z,2.00
2018-09-23T10:29:48.068Z,2.50
2018-09-23T10:32:15.375Z,2.60
2018-09-23T10:34:42.710Z,2.77
2018-09-23T10:37:10.049Z,2.57
2018-09-23T10:39:37.374Z,2.50
2018-09-23T10:42:04.699Z,3.03
2018-09-23T10:44:32.044Z,3.80
2018-09-23T10:46:59.360Z,3.20
2018-09-23T10:49:26.683Z,3.20
2018-09-23T10:51:54.055Z,2.63
2018-09-23T10:54:21.364Z,4.23
2018-09-23T10:56:48.693Z,3.83
2018-09-23T10:59:16.056Z,3.40
2018-09-23T11:01:43.388Z,3.10
2018-09-23T11:04:10.746Z,3.50
2018-09-23T11:06:38.099Z,4.77
2018-09-23T11:09:06.148Z,3.63
2018-09-23T11:11:33.471Z,3.80
2018-09-23T11:14:00.780Z,4.57
2018-09-23T11:16:28.104Z,4.97
2018-09-23T11:18:55.424Z,3.93
2018-09-23T11:21:22.745Z,4.60
2018-09-23T11:23:50.072Z,3.50
2018-09-23T11:26:17.381Z,4.10
2018-09-23T11:28:44.705Z,4.20
2018-09-23T11:31:12.081Z,4.50
2018-09-23T11:33:39.396Z,3.97
2018-09-23T11:36:06.729Z,4.30
2018-09-23T11:38:34.037Z,4.33
2018-09-23T11:41:01.392Z,3.60
2018-09-23T11:43:28.704Z,3.07
2018-09-23T11:45:56.028Z,4.70
2018-09-23T11:48:23.378Z,3.50
2018-09-23T11:50:50.672Z,3.70
2018-09-23T11:53:18.020Z,3.33
2018-09-23T11:55:45.375Z,3.10
2018-09-23T11:58:19.488Z,3.63
2018-09-23T12:00:46.853Z,3.20
2018-09-23T12:03:14.181Z,3.83
2018-09-23T12:05:41.489Z,4.40
2018-09-23T12:08:08.837Z,4.10
2018-09-23T12:10:36.192Z,4.37
2018-09-23T12:13:03.483Z,3.57
2018-09-23T12:15:30.875Z,3.53
2018-09-23T12:17:58.156Z,3.70
2018-09-23T12:20:25.463Z,2.77
2018-09-23T12:22:52.796Z,2.40
2018-09-23T12:25:20.167Z,2.13
2018-09-23T12:27:47.461Z,1.37
2018-09-23T12:30:14.774Z,1.57
2018-09-23T12:32:42.116Z,1.33
2018-09-23T12:35:09.427Z,1.40
2018-09-23T12:37:36.755Z,1.23
2018-09-23T12:40:04.308Z,1.30
2018-09-23T12:42:31.628Z,1.57
2018-09-23T12:44:58.937Z,2.20
2018-09-23T12:47:26.272Z,1.40
2018-09-23T12:49:53.614Z,1.33
2018-09-23T12:52:20.916Z,1.50
2018-09-23T12:54:48.252Z,1.10
2018-09-23T12:57:15.611Z,1.07
2018-09-23T12:59:42.969Z,1.00
2018-09-23T13:02:10.280Z,0.90
2018-09-23T13:04:37.626Z,1.30
2018-09-23T13:07:05.068Z,1.00
2018-09-23T13:09:32.388Z,1.53
2018-09-23T13:11:59.724Z,1.33
2018-09-23T13:14:27.041Z,1.00
2018-09-23T13:16:54.346Z,1.20
2018-09-23T13:19:21.710Z,1.77
2018-09-23T13:21:49.028Z,1.20
2018-09-23T13:24:16.363Z,1.33
2018-09-23T13:26:43.681Z,1.20
2018-09-23T13:29:11.057Z,1.27
2018-09-23T13:31:38.376Z,1.00
2018-09-23T13:34:05.792Z,1.43
2018-09-23T13:36:33.141Z,1.27
2018-09-23T13:39:00.454Z,1.80
2018-09-23T13:41:27.760Z,1.47
2018-09-23T13:43:55.098Z,1.00
2018-09-23T13:46:22.454Z,0.87
2018-09-23T13:48:49.735Z,0.80
2018-09-23T13:51:17.077Z,1.37
2018-09-23T13:53:44.505Z,1.07
2018-09-23T13:56:11.842Z,1.20
2018-09-23T13:58:39.143Z,1.23
2018-09-23T14:01:06.572Z,2.00
2018-09-23T14:03:33.883Z,1.37
2018-09-23T14:06:01.200Z,1.03
2018-09-23T14:08:28.535Z,1.03
2018-09-23T14:10:55.841Z,2.17
2018-09-23T14:13:23.150Z,3.23
2018-09-23T14:15:50.583Z,1.10
2018-09-23T14:18:17.924Z,1.00
2018-09-23T14:20:45.252Z,5.07
2018-09-23T14:23:12.558Z,3.27
2018-09-23T14:25:39.904Z,1.37
2018-09-23T14:28:07.233Z,8.77
2018-09-23T14:30:34.565Z,1.90
2018-09-23T14:33:02.043Z,1.90
2018-09-23T14:35:29.346Z,1.70
2018-09-23T14:37:56.656Z,1.30
2018-09-23T14:40:23.991Z,1.23
2018-09-23T14:42:51.303Z,0.50
2018-09-23T14:45:18.641Z,0.80
2018-09-23T14:47:45.983Z,0.97
2018-09-23T14:50:13.304Z,0.70
2018-09-23T14:52:40.612Z,0.73
2018-09-23T14:55:08.015Z,1.50
2018-09-23T14:57:35.299Z,0.97
2018-09-23T15:00:03.269Z,2.47
2018-09-23T15:02:29.939Z,0.80
2018-09-23T15:04:57.264Z,0.63
2018-09-23T15:07:24.636Z,1.33
2018-09-23T15:09:51.996Z,0.40
2018-09-23T15:12:19.319Z,0.80
2018-09-23T15:14:46.653Z,0.80
2018-09-23T15:17:14.008Z,0.90
2018-09-23T15:19:41.319Z,0.90
2018-09-23T15:22:08.633Z,1.10
2018-09-23T15:24:36.089Z,0.97
2018-09-23T15:27:03.430Z,0.90
2018-09-23T15:29:30.782Z,1.17
2018-09-23T15:31:58.140Z,3.33
2018-09-23T15:34:25.398Z,0.80
2018-09-23T15:36:52.729Z,0.80
2018-09-23T15:39:20.065Z,0.63
2018-09-23T15:41:47.383Z,0.60
2018-09-23T15:44:14.792Z,0.67
2018-09-23T15:46:42.122Z,0.80
2018-09-23T15:49:09.434Z,0.70
2018-09-23T15:51:36.843Z,0.60
2018-09-23T15:54:04.151Z,2.00
2018-09-23T15:56:31.522Z,1.20
2018-09-23T15:58:58.875Z,0.50
2018-09-23T16:01:26.180Z,0.70
2018-09-23T16:03:53.495Z,0.70
2018-09-23T16:06:20.904Z,0.50
2018-09-23T16:08:48.232Z,0.80
2018-09-23T16:11:15.622Z,0.80
2018-09-23T16:13:42.977Z,0.70
2018-09-23T16:16:10.284Z,0.70
2018-09-23T16:18:37.732Z,0.80
2018-09-23T16:21:04.923Z,0.70
2018-09-23T16:23:32.252Z,0.67
2018-09-23T16:25:59.583Z,0.80
2018-09-23T16:28:26.892Z,0.60
2018-09-23T16:30:54.244Z,0.70
2018-09-23T16:33:21.584Z,0.70
2018-09-23T16:35:48.921Z,0.60
2018-09-23T16:38:16.239Z,1.40
2018-09-23T16:40:43.593Z,0.70
2018-09-23T16:43:10.898Z,1.07
2018-09-23T16:45:38.259Z,0.70
2018-09-23T16:48:05.609Z,1.63
2018-09-23T16:50:32.920Z,0.80
2018-09-23T16:53:00.271Z,0.70
2018-09-23T16:55:27.580Z,0.70
2018-09-23T16:57:54.910Z,0.70
2018-09-23T17:00:22.260Z,0.70
2018-09-23T17:02:49.632Z,1.20
2018-09-23T17:05:16.941Z,0.70
2018-09-23T17:07:44.299Z,0.80
2018-09-23T17:10:11.632Z,0.57
2018-09-23T17:12:38.972Z,0.70
2018-09-23T17:15:06.295Z,0.67
2018-09-23T17:17:33.656Z,0.70
2018-09-23T17:20:00.977Z,0.80
2018-09-23T17:22:28.292Z,1.03
2018-09-23T17:24:55.636Z,0.90
2018-09-23T17:27:22.948Z,1.07
2018-09-23T17:29:50.263Z,0.93
2018-09-23T17:32:17.603Z,1.00
2018-09-23T17:34:44.953Z,1.10
2018-09-23T17:37:12.287Z,1.00
2018-09-23T17:39:39.615Z,0.83
2018-09-23T17:42:06.936Z,0.73
2018-09-23T17:44:34.280Z,0.87
2018-09-23T17:47:01.610Z,0.70
2018-09-23T17:49:28.934Z,0.90
2018-09-23T17:51:56.247Z,1.10
2018-09-23T17:54:23.608Z,0.87
2018-09-23T17:56:50.939Z,1.00
2018-09-23T17:59:18.255Z,1.30
2018-09-23T18:01:45.640Z,1.10
2018-09-23T18:04:12.976Z,0.90
2018-09-23T18:06:40.288Z,0.90
2018-09-23T18:09:07.928Z,0.70
2018-09-23T18:11:35.284Z,0.97
2018-09-23T18:14:02.599Z,1.47
2018-09-23T18:16:29.928Z,2.30
2018-09-23T18:18:57.275Z,1.03
2018-09-23T18:21:24.615Z,0.67
2018-09-23T18:23:51.968Z,1.00
2018-09-23T18:26:19.298Z,1.30
2018-09-23T18:28:46.640Z,1.20
2018-09-23T18:31:13.996Z,0.90
2018-09-23T18:33:41.307Z,1.47
2018-09-23T18:36:08.628Z,1.23
2018-09-23T18:38:36.051Z,1.10
2018-09-23T18:41:03.377Z,1.00
2018-09-23T18:43:30.692Z,1.10
2018-09-23T18:45:58.040Z,1.40
2018-09-23T18:48:25.373Z,1.03
2018-09-23T18:50:52.827Z,1.50
2018-09-23T18:53:20.143Z,1.27
2018-09-23T18:55:47.464Z,1.50
2018-09-23T18:58:14.860Z,1.27
2018-09-23T19:00:42.163Z,1.03
2018-09-23T19:03:09.577Z,1.10
2018-09-23T19:05:36.889Z,1.40
2018-09-23T19:08:04.280Z,1.77
2018-09-23T19:10:31.629Z,1.67
2018-09-23T19:12:58.995Z,1.30
2018-09-23T19:15:26.370Z,1.73
2018-09-23T19:17:53.760Z,1.20
2018-09-23T19:20:21.104Z,1.10
2018-09-23T19:22:48.434Z,1.60
2018-09-23T19:25:15.759Z,1.67
2018-09-23T19:27:43.159Z,1.53
2018-09-23T19:30:10.515Z,1.80
2018-09-23T19:32:37.838Z,1.97
2018-09-23T19:35:05.222Z,1.90
2018-09-23T19:37:32.577Z,2.00
2018-09-23T19:39:59.912Z,2.20
2018-09-23T19:42:27.240Z,2.00
2018-09-23T19:44:54.616Z,2.27
2018-09-23T19:47:21.947Z,2.23
2018-09-23T19:49:49.267Z,2.40
2018-09-23T19:52:16.598Z,2.60
2018-09-23T19:54:43.951Z,1.83
2018-09-23T19:57:11.281Z,1.80
2018-09-23T19:59:38.595Z,2.03
2018-09-23T20:02:05.952Z,2.40
2018-09-23T20:04:33.280Z,2.17
2018-09-23T20:07:00.618Z,2.80
2018-09-23T20:09:27.924Z,2.00
2018-09-23T20:11:55.443Z,1.90
2018-09-23T20:14:22.760Z,2.77
2018-09-23T20:16:50.088Z,2.20
2018-09-23T20:19:17.432Z,2.07
2018-09-23T20:21:44.767Z,2.20
2018-09-23T20:24:12.161Z,2.40
2018-09-23T20:26:39.520Z,2.40
2018-09-23T20:29:06.860Z,2.33
2018-09-23T20:31:34.193Z,2.13
2018-09-23T20:34:01.507Z,2.60
2018-09-23T20:36:28.853Z,2.07
2018-09-23T20:38:56.204Z,2.20
2018-09-23T20:41:23.520Z,2.00
2018-09-23T20:43:50.900Z,2.43
2018-09-23T20:46:18.244Z,2.03
2018-09-23T20:48:45.612Z,2.50
2018-09-23T20:51:12.977Z,2.70
2018-09-23T20:53:40.300Z,2.53
2018-09-23T20:56:07.674Z,2.87
2018-09-23T20:58:35.024Z,3.03
2018-09-23T21:01:02.373Z,1.93
2018-09-23T21:03:29.702Z,2.37
2018-09-23T21:05:57.037Z,2.40
2018-09-23T21:08:24.386Z,2.33
2018-09-23T21:10:51.721Z,2.30
2018-09-23T21:13:19.033Z,2.07
2018-09-23T21:15:46.408Z,2.40
2018-09-23T21:18:13.728Z,2.90
2018-09-23T21:20:41.056Z,4.00
2018-09-23T21:23:08.417Z,1.93
2018-09-23T21:25:35.732Z,3.07
2018-09-23T21:28:03.129Z,2.40
2018-09-23T21:30:30.445Z,2.70
2018-09-23T21:32:57.764Z,1.80
2018-09-23T21:35:25.237Z,2.40
2018-09-23T21:37:52.592Z,2.53
2018-09-23T21:40:19.920Z,2.07
2018-09-23T21:42:47.261Z,2.30
2018-09-23T21:45:14.644Z,2.87
2018-09-23T21:47:41.975Z,2.20
2018-09-23T21:50:09.324Z,2.20
2018-09-23T21:52:36.642Z,2.37
2018-09-23T21:55:04.047Z,2.73
2018-09-23T21:57:31.363Z,2.40
2018-09-23T21:59:58.708Z,2.70
2018-09-23T22:02:26.040Z,2.67
2018-09-23T22:04:53.412Z,2.53
2018-09-23T22:07:20.725Z,2.23
2018-09-23T22:09:48.028Z,2.70
2018-09-23T22:12:15.371Z,2.47
2018-09-23T22:14:42.672Z,2.43
2018-09-23T22:17:09.993Z,2.60
2018-09-23T22:19:37.372Z,3.00
2018-09-23T22:22:04.694Z,2.93
2018-09-23T22:24:31.998Z,2.50
2018-09-23T22:26:59.344Z,2.57
2018-09-23T22:29:26.656Z,3.20
2018-09-23T22:31:53.976Z,3.50
2018-09-23T22:34:21.332Z,3.03
2018-09-23T22:36:49.527Z,2.73
2018-09-23T22:39:16.841Z,3.10
2018-09-23T22:41:44.175Z,3.00
2018-09-23T22:44:11.516Z,3.93
2018-09-23T22:46:38.828Z,3.20
2018-09-23T22:49:06.168Z,3.63
2018-09-23T22:51:33.485Z,3.30
2018-09-23T22:54:00.790Z,2.90
2018-09-23T22:56:28.140Z,3.13
2018-09-23T22:58:55.452Z,3.30
2018-09-23T23:01:22.795Z,3.40
2018-09-23T23:03:50.139Z,3.43
2018-09-23T23:06:17.447Z,5.27
2018-09-23T23:08:44.831Z,3.87
2018-09-23T23:11:12.167Z,3.80
2018-09-23T23:13:39.479Z,3.57
2018-09-23T23:16:06.827Z,3.77
2018-09-23T23:18:34.132Z,3.60
2018-09-23T23:21:01.455Z,3.37
2018-09-23T23:23:28.797Z,3.43
2018-09-23T23:25:56.107Z,4.33
2018-09-23T23:28:23.447Z,4.00
2018-09-23T23:30:50.766Z,3.67
2018-09-23T23:33:18.068Z,4.20
2018-09-23T23:35:45.403Z,4.63
2018-09-23T23:38:12.828Z,4.70
2018-09-23T23:40:40.147Z,3.73
2018-09-23T23:43:07.479Z,4.20
2018-09-23T23:45:34.831Z,3.90
2018-09-23T23:48:02.157Z,3.20
2018-09-23T23:50:29.492Z,4.37
2018-09-23T23:52:56.832Z,4.57
2018-09-23T23:55:24.152Z,3.80
2018-09-23T23:57:51.469Z,4.33
